createdAt,value
2018-12-01T00:04:59.064Z,2.26
2018-12-01T00:10:01.762Z,2.30
2018-12-01T00:15:07.877Z,2.32
2018-12-01T00:20:12.529Z,2.32
2018-12-01T00:25:15.182Z,2.33
2018-12-01T00:30:19.699Z,2.37
2018-12-01T00:35:22.327Z,2.36
2018-12-01T00:40:24.960Z,2.39
2018-12-01T00:45:27.592Z,2.41
2018-12-01T00:50:30.237Z,2.36
2018-12-01T00:55:32.869Z,2.33
2018-12-01T01:00:35.515Z,2.35
2018-12-01T01:05:38.123Z,2.42
2018-12-01T01:10:40.720Z,2.42
2018-12-01T01:15:43.408Z,2.44
2018-12-01T01:20:46.660Z,2.48
2018-12-01T01:25:49.256Z,2.49
2018-12-01T01:30:51.837Z,2.46
2018-12-01T01:35:54.436Z,2.46
2018-12-01T01:41:02.980Z,2.49
2018-12-01T01:46:05.642Z,2.53
2018-12-01T01:51:08.356Z,2.55
2018-12-01T01:56:10.981Z,2.56
2018-12-01T02:01:13.589Z,2.55
2018-12-01T02:06:16.185Z,2.60
2018-12-01T02:11:18.887Z,2.57
2018-12-01T02:16:21.525Z,2.57
2018-12-01T02:21:25.332Z,2.59
2018-12-01T02:26:28.013Z,2.57
2018-12-01T02:31:30.656Z,2.57
2018-12-01T02:36:33.257Z,2.53
2018-12-01T02:41:35.871Z,2.55
2018-12-01T02:47:04.098Z,2.53
2018-12-01T02:52:06.767Z,2.49
2018-12-01T02:57:09.377Z,2.49
2018-12-01T03:02:12.034Z,2.54
2018-12-01T03:07:14.668Z,2.48
2018-12-01T03:12:17.262Z,2.46
2018-12-01T03:17:19.892Z,2.51
2018-12-01T03:22:22.577Z,2.55
2018-12-01T03:27:29.832Z,2.56
2018-12-01T03:32:32.465Z,2.62
2018-12-01T03:37:35.125Z,2.62
2018-12-01T03:42:37.733Z,2.59
2018-12-01T03:47:40.409Z,2.62
2018-12-01T03:52:43.114Z,2.63
2018-12-01T03:57:45.734Z,2.63
2018-12-01T04:02:48.317Z,2.63
2018-12-01T04:07:50.929Z,2.59
2018-12-01T04:12:54.034Z,2.58
2018-12-01T04:17:56.707Z,2.54
2018-12-01T04:23:00.135Z,2.58
2018-12-01T04:28:02.790Z,2.61
2018-12-01T04:33:05.592Z,2.68
2018-12-01T04:38:08.205Z,2.69
2018-12-01T04:43:10.794Z,2.67
2018-12-01T04:48:13.429Z,2.69
2018-12-01T04:53:16.144Z,2.69
2018-12-01T04:58:18.752Z,2.70
2018-12-01T05:03:21.347Z,2.73
2018-12-01T05:08:23.957Z,2.67
2018-12-01T05:13:26.571Z,2.60
2018-12-01T05:18:29.194Z,2.66
2018-12-01T05:23:31.905Z,2.70
2018-12-01T05:28:34.464Z,2.74
2018-12-01T05:33:37.003Z,2.79
2018-12-01T05:38:39.685Z,2.82
2018-12-01T05:43:42.297Z,2.88
2018-12-01T05:48:44.980Z,2.88
2018-12-01T05:53:47.640Z,2.89
2018-12-01T05:58:50.395Z,2.92
2018-12-01T06:03:53.030Z,2.95
2018-12-01T06:08:55.615Z,2.94
2018-12-01T06:13:58.228Z,2.97
2018-12-01T06:19:00.864Z,2.94
2018-12-01T06:24:03.741Z,2.93
2018-12-01T06:29:06.372Z,2.95
2018-12-01T06:34:09.005Z,3.01
2018-12-01T06:39:11.630Z,3.04
2018-12-01T06:44:14.353Z,3.04
2018-12-01T06:49:17.004Z,3.08
2018-12-01T06:54:19.655Z,3.12
2018-12-01T06:59:22.252Z,3.14
2018-12-01T07:04:24.924Z,3.17
2018-12-01T07:09:27.624Z,3.23
2018-12-01T07:14:30.217Z,3.28
2018-12-01T07:19:32.780Z,3.32
2018-12-01T07:24:35.412Z,3.39
2018-12-01T07:29:38.112Z,3.46
2018-12-01T07:34:40.754Z,3.48
2018-12-01T07:39:43.423Z,3.51
2018-12-01T07:44:47.013Z,3.54
2018-12-01T07:49:48.651Z,3.55
2018-12-01T07:54:51.380Z,3.55
2018-12-01T07:59:54.160Z,3.59
2018-12-01T08:04:57.060Z,3.64
2018-12-01T08:09:59.809Z,3.71
2018-12-01T08:15:03.527Z,3.75
2018-12-01T08:20:08.689Z,3.79
2018-12-01T08:25:13.468Z,3.87
2018-12-01T08:30:20.037Z,3.95
2018-12-01T08:35:23.673Z,4.04
2018-12-01T08:40:28.008Z,4.10
2018-12-01T08:45:30.741Z,4.14
2018-12-01T08:50:33.229Z,4.33
2018-12-01T08:55:35.831Z,4.60
2018-12-01T09:00:41.035Z,4.79
2018-12-01T09:05:43.756Z,4.91
2018-12-01T09:10:46.389Z,5.41
2018-12-01T09:15:48.981Z,5.78
2018-12-01T09:20:51.609Z,6.08
2018-12-01T09:25:54.539Z,6.49
2018-12-01T09:30:57.158Z,6.47
2018-12-01T09:36:00.009Z,6.52
2018-12-01T09:41:02.678Z,6.96
2018-12-01T09:46:05.345Z,6.89
2018-12-01T09:51:08.273Z,6.85
2018-12-01T09:56:11.117Z,6.85
2018-12-01T10:01:13.730Z,7.30
2018-12-01T10:06:16.499Z,7.79
2018-12-01T10:11:19.104Z,8.21
2018-12-01T10:16:21.964Z,8.63
2018-12-01T10:21:24.577Z,8.89
2018-12-01T10:26:27.197Z,9.11
2018-12-01T10:31:29.877Z,9.53
2018-12-01T10:36:32.545Z,9.94
2018-12-01T10:41:35.237Z,9.76
2018-12-01T10:46:37.824Z,9.14
2018-12-01T10:51:40.443Z,8.59
2018-12-01T10:56:43.165Z,8.40
2018-12-01T11:01:51.499Z,8.36
2018-12-01T11:06:54.209Z,8.24
2018-12-01T11:11:56.843Z,8.25
2018-12-01T11:16:59.536Z,8.22
2018-12-01T11:22:02.189Z,8.15
2018-12-01T11:27:05.117Z,8.01
2018-12-01T11:32:07.778Z,7.88
2018-12-01T11:37:10.356Z,7.80
2018-12-01T11:42:12.969Z,7.84
2018-12-01T11:47:15.678Z,7.96
2018-12-01T11:52:18.335Z,7.89
2018-12-01T11:57:20.977Z,7.84
2018-12-01T12:02:23.726Z,7.77
2018-12-01T12:07:43.732Z,7.82
2018-12-01T12:12:46.532Z,7.76
2018-12-01T12:18:05.408Z,7.74
2018-12-01T12:23:08.082Z,7.75
2018-12-01T12:28:10.797Z,7.83
2018-12-01T12:33:13.393Z,7.96
2018-12-01T12:38:16.004Z,8.04
2018-12-01T12:43:18.581Z,8.00
2018-12-01T12:48:21.161Z,7.88
2018-12-01T12:53:23.776Z,7.82
2018-12-01T12:58:26.410Z,7.81
2018-12-01T13:03:29.004Z,7.90
2018-12-01T13:08:31.638Z,7.99
2018-12-01T13:13:34.279Z,7.93
2018-12-01T13:18:36.869Z,7.96
2018-12-01T13:23:39.504Z,7.92
2018-12-01T13:28:42.131Z,7.85
2018-12-01T13:33:45.119Z,7.80
2018-12-01T13:38:47.840Z,7.81
2018-12-01T13:43:50.452Z,7.80
2018-12-01T13:48:53.186Z,7.87
2018-12-01T13:53:55.847Z,7.98
2018-12-01T13:58:58.782Z,8.05
2018-12-01T14:04:01.407Z,8.07
2018-12-01T14:09:06.797Z,8.08
2018-12-01T14:14:09.740Z,8.03
2018-12-01T14:19:12.413Z,7.97
2018-12-01T14:24:15.213Z,7.91
2018-12-01T14:29:17.866Z,7.86
2018-12-01T14:34:20.594Z,7.84
2018-12-01T14:39:23.209Z,7.77
2018-12-01T14:44:25.810Z,7.70
2018-12-01T14:49:28.356Z,7.63
2018-12-01T14:54:31.004Z,7.56
2018-12-01T14:59:33.679Z,7.51
2018-12-01T15:04:36.481Z,7.43
2018-12-01T15:09:39.064Z,7.37
2018-12-01T15:14:41.698Z,7.33
2018-12-01T15:19:44.287Z,7.27
2018-12-01T15:24:46.831Z,7.23
2018-12-01T15:29:49.447Z,7.20
2018-12-01T15:34:52.189Z,7.15
2018-12-01T15:39:54.776Z,7.11
2018-12-01T15:44:57.398Z,7.09
2018-12-01T15:49:59.991Z,7.07
2018-12-01T15:55:02.641Z,7.05
2018-12-01T16:00:25.544Z,7.03
2018-12-01T16:05:28.167Z,7.03
2018-12-01T16:10:30.830Z,7.01
2018-12-01T16:15:35.913Z,6.99
2018-12-01T16:20:38.759Z,6.96
2018-12-01T16:25:41.781Z,6.94
2018-12-01T16:30:45.299Z,6.95
2018-12-01T16:35:49.162Z,6.96
2018-12-01T16:40:56.339Z,6.99
2018-12-01T16:45:59.268Z,7.04
2018-12-01T16:51:01.977Z,7.09
2018-12-01T16:56:04.945Z,7.12
2018-12-01T17:01:07.582Z,7.16
2018-12-01T17:06:15.528Z,7.15
2018-12-01T17:11:18.205Z,7.16
2018-12-01T17:16:20.983Z,7.15
2018-12-01T17:21:23.616Z,7.14
2018-12-01T17:26:26.181Z,7.12
2018-12-01T17:31:28.844Z,7.09
2018-12-01T17:36:31.442Z,7.04
2018-12-01T17:41:34.056Z,7.01
2018-12-01T17:46:36.801Z,6.96
2018-12-01T17:51:39.437Z,6.95
2018-12-01T17:56:42.184Z,6.94
2018-12-01T18:01:44.796Z,6.91
2018-12-01T18:06:47.424Z,6.89
2018-12-01T18:11:50.113Z,6.84
2018-12-01T18:16:53.642Z,6.81
2018-12-01T18:21:56.240Z,6.80
2018-12-01T18:26:58.940Z,6.78
2018-12-01T18:32:01.535Z,6.78
2018-12-01T18:37:04.136Z,6.75
2018-12-01T18:42:06.760Z,6.73
2018-12-01T18:47:09.326Z,6.72
2018-12-01T18:52:11.927Z,6.70
2018-12-01T18:57:14.597Z,6.68
2018-12-01T19:02:17.288Z,6.67
2018-12-01T19:07:19.863Z,6.66
2018-12-01T19:12:22.469Z,6.65
2018-12-01T19:17:25.116Z,6.62
2018-12-01T19:22:27.841Z,6.60
2018-12-01T19:27:30.582Z,6.56
2018-12-01T19:32:33.522Z,6.53
2018-12-01T19:37:36.285Z,6.51
2018-12-01T19:42:38.919Z,6.47
2018-12-01T19:47:41.532Z,6.48
2018-12-01T19:52:44.268Z,6.48
2018-12-01T19:57:46.888Z,6.45
2018-12-01T20:02:49.810Z,6.46
2018-12-01T20:07:52.596Z,6.44
2018-12-01T20:12:59.541Z,6.42
2018-12-01T20:18:07.040Z,6.40
2018-12-01T20:23:09.796Z,6.38
2018-12-01T20:28:12.444Z,6.36
2018-12-01T20:33:15.926Z,6.35
2018-12-01T20:38:41.688Z,6.31
2018-12-01T20:43:44.262Z,6.27
2018-12-01T20:48:46.940Z,6.25
2018-12-01T20:53:49.958Z,6.22
2018-12-01T20:58:52.609Z,6.21
2018-12-01T21:03:55.234Z,6.19
2018-12-01T21:08:57.873Z,6.15
2018-12-01T21:14:00.479Z,6.12
2018-12-01T21:19:03.152Z,6.10
2018-12-01T21:24:06.588Z,6.06
2018-12-01T21:29:09.215Z,6.00
2018-12-01T21:34:11.752Z,5.92
2018-12-01T21:39:14.496Z,5.83
2018-12-01T21:44:17.108Z,5.81
2018-12-01T21:49:19.732Z,5.79
2018-12-01T21:54:22.328Z,5.73
2018-12-01T21:59:24.873Z,5.66
2018-12-01T22:04:27.484Z,5.62
2018-12-01T22:09:30.060Z,5.56
2018-12-01T22:14:32.681Z,5.53
2018-12-01T22:19:35.280Z,5.46
2018-12-01T22:24:37.933Z,5.40
2018-12-01T22:29:40.609Z,5.36
2018-12-01T22:34:43.203Z,5.36
2018-12-01T22:39:45.877Z,5.37
2018-12-01T22:44:48.593Z,5.36
2018-12-01T22:49:51.270Z,5.36
2018-12-01T22:54:53.980Z,5.37
2018-12-01T22:59:56.693Z,5.34
2018-12-01T23:04:59.360Z,5.34
2018-12-01T23:10:02.004Z,5.32
2018-12-01T23:15:06.805Z,5.33
2018-12-01T23:20:19.351Z,5.38
2018-12-01T23:25:22.068Z,5.40
2018-12-01T23:30:27.805Z,5.40
2018-12-01T23:35:31.047Z,5.40
2018-12-01T23:40:33.710Z,5.42
2018-12-01T23:45:38.744Z,5.43
2018-12-01T23:50:45.121Z,5.43
2018-12-01T23:55:47.776Z,5.40
